Time;durP1;ratioP1;P1;durP2;ratioP2;P2;SDS_P1;SDS_P2;PMS_P1;PMS_P2;Temp;Humidity;BMP_temperature;BMP_pressure;BME280_temperature;BME280_humidity;BME280_pressure;Samples;Min_cycle;Max_cycle;Signal;HPM_P1;HPM_P2
2022/09/25 00:01:37;;;;;;;36.20;28.17;;;;;;;12.89;100.00;95890.06;4993605;28;20142;-78
2022/09/25 00:04:05;;;;;;;32.15;26.55;;;;;;;12.84;100.00;95896.53;4993752;28;20049;-77
2022/09/25 00:06:32;;;;;;;36.05;26.23;;;;;;;12.84;100.00;95895.75;4993258;28;20057;-78
2022/09/25 00:09:00;;;;;;;28.50;23.40;;;;;;;12.80;100.00;95896.47;4993095;28;20104;-78
2022/09/25 00:11:28;;;;;;;29.92;25.15;;;;;;;12.78;100.00;95901.44;4993302;28;20512;-77
2022/09/25 00:13:56;;;;;;;36.92;26.40;;;;;;;12.75;100.00;95896.69;4993676;28;20051;-78
2022/09/25 00:16:24;;;;;;;37.15;29.55;;;;;;;12.73;100.00;95896.22;4993466;28;20506;-77
2022/09/25 00:21:38;;;;;;;82.75;34.67;;;;;;;12.65;100.00;95891.69;4973780;28;20058;-78
2022/09/25 00:24:07;;;;;;;71.50;35.72;;;;;;;12.56;100.00;95896.47;4974903;28;20166;-78
2022/09/25 00:26:36;;;;;;;40.78;31.73;;;;;;;12.58;100.00;95893.38;4993863;28;20051;-78
2022/09/25 00:29:04;;;;;;;94.05;40.10;;;;;;;12.49;100.00;95890.78;4993638;28;20053;-78
2022/09/25 00:31:31;;;;;;;79.35;36.72;;;;;;;12.41;100.00;95894.41;4993679;28;20052;-78
2022/09/25 00:34:00;;;;;;;49.38;33.47;;;;;;;12.42;100.00;95896.00;4993256;28;20469;-78
2022/09/25 00:36:29;;;;;;;55.25;31.40;;;;;;;12.47;100.00;95887.56;4993031;28;20092;-78
2022/09/25 00:38:58;;;;;;;38.00;29.83;;;;;;;12.51;100.00;95878.38;4993188;28;20486;-77
2022/09/25 00:41:28;;;;;;;38.88;29.35;;;;;;;12.60;100.00;95886.44;4992965;28;20386;-78
2022/09/25 00:43:57;;;;;;;34.95;27.27;;;;;;;12.59;100.00;95882.13;4993290;28;20046;-77
2022/09/25 00:46:28;;;;;;;43.58;29.88;;;;;;;12.56;100.00;95882.00;4992718;28;20042;-78
2022/09/25 00:49:02;;;;;;;43.78;27.50;;;;;;;12.54;100.00;95882.34;4994994;28;20400;-78
2022/09/25 00:51:40;;;;;;;34.38;25.98;;;;;;;12.46;100.00;95866.88;4992718;28;20058;-78
2022/09/25 00:54:14;;;;;;;33.08;25.83;;;;;;;12.43;100.00;95864.84;4993754;28;20125;-77
2022/09/25 00:56:44;;;;;;;102.28;33.35;;;;;;;12.35;100.00;95857.53;4973971;28;20046;-76
2022/09/25 00:59:15;;;;;;;36.03;27.67;;;;;;;12.36;100.00;95859.13;4992621;28;20087;-78
2022/09/25 01:01:44;;;;;;;47.75;30.70;;;;;;;12.39;100.00;95863.94;4993762;28;20055;-77
2022/09/25 01:04:12;;;;;;;48.28;32.00;;;;;;;12.31;100.00;95867.56;4992888;28;20155;-77
2022/09/25 01:06:39;;;;;;;38.75;29.70;;;;;;;12.33;100.00;95855.16;4993593;28;20124;-77
2022/09/25 01:09:07;;;;;;;40.53;28.73;;;;;;;12.34;100.00;95864.16;4992939;28;20057;-77
2022/09/25 01:11:34;;;;;;;43.63;29.00;;;;;;;12.34;100.00;95861.41;4992849;28;20052;-78
2022/09/25 01:14:05;;;;;;;50.70;30.48;;;;;;;12.32;100.00;95860.94;4993656;28;20066;-77
2022/09/25 01:16:38;;;;;;;37.72;27.63;;;;;;;12.24;100.00;95855.28;4992829;28;20050;-78
2022/09/25 01:19:16;;;;;;;64.97;30.60;;;;;;;12.18;100.00;95864.81;4992173;28;20057;-78
2022/09/25 01:21:47;;;;;;;35.38;27.23;;;;;;;12.14;100.00;95868.56;4993100;28;20054;-77
2022/09/25 01:24:36;;;;;;;69.68;30.90;;;;;;;12.09;100.00;95866.84;4993141;28;20050;-77
2022/09/25 01:27:27;;;;;;;56.85;30.00;;;;;;;12.07;100.00;95869.13;4992989;28;20050;-77
2022/09/25 01:30:04;;;;;;;34.80;25.88;;;;;;;12.15;100.00;95862.75;4993353;28;20158;-77
2022/09/25 01:32:35;;;;;;;38.33;28.63;;;;;;;12.22;100.00;95863.00;4993203;28;20050;-77
2022/09/25 01:35:09;;;;;;;38.90;28.38;;;;;;;12.20;100.00;95862.53;4992881;28;20054;-77
2022/09/25 01:37:44;;;;;;;40.30;29.08;;;;;;;12.16;100.00;95856.19;4992768;28;20046;-77
2022/09/25 01:40:17;;;;;;;37.33;27.52;;;;;;;12.14;100.00;95852.97;4993398;28;20054;-77
2022/09/25 01:42:49;;;;;;;52.38;31.48;;;;;;;12.02;100.00;95851.03;4992885;28;20050;-78
2022/09/25 01:45:21;;;;;;;35.38;25.48;;;;;;;12.05;100.00;95844.09;4993634;28;20445;-77
2022/09/25 01:47:51;;;;;;;46.70;29.75;;;;;;;12.08;100.00;95854.34;4996806;28;20681;-77
2022/09/25 01:50:25;;;;;;;37.28;28.80;;;;;;;12.13;100.00;95854.13;4998672;28;20050;-77
2022/09/25 01:52:55;;;;;;;37.70;28.05;;;;;;;12.21;100.00;95846.94;4997629;28;20043;-77
2022/09/25 01:55:30;;;;;;;39.47;29.05;;;;;;;12.18;100.00;95845.72;4996769;28;20049;-77
2022/09/25 01:58:06;;;;;;;41.17;28.40;;;;;;;12.13;100.00;95837.75;4997048;28;20049;-77
2022/09/25 02:00:38;;;;;;;60.47;32.47;;;;;;;11.96;100.00;95837.97;4977163;28;20414;-77
2022/09/25 02:03:12;;;;;;;43.38;29.27;;;;;;;11.89;100.00;95843.97;4978145;28;20057;-77
2022/09/25 02:05:45;;;;;;;46.22;30.13;;;;;;;12.00;100.00;95849.78;4991156;28;20047;-77
2022/09/25 02:08:15;;;;;;;53.08;32.67;;;;;;;11.90;100.00;95842.03;4996715;28;20050;-77
2022/09/25 02:10:46;;;;;;;40.20;28.92;;;;;;;12.00;100.00;95847.03;4996976;28;20061;-77
2022/09/25 02:13:16;;;;;;;41.78;28.63;;;;;;;12.03;100.00;95846.38;4996909;28;20182;-77
2022/09/25 02:15:49;;;;;;;41.67;28.73;;;;;;;12.08;100.00;95851.63;4995870;28;20133;-77
2022/09/25 02:21:13;;;;;;;37.03;26.70;;;;;;;12.13;100.00;95856.06;4996699;28;20144;-77
2022/09/25 02:23:52;;;;;;;57.28;30.73;;;;;;;12.01;100.00;95854.13;4996424;28;20046;-77
2022/09/25 02:26:25;;;;;;;42.40;28.48;;;;;;;11.99;100.00;95859.91;4996875;28;20054;-77
2022/09/25 02:28:53;;;;;;;;;;;;;;;12.03;100.00;95857.28;4997048;28;20059;-78
2022/09/25 02:31:27;;;;;;;40.40;28.95;;;;;;;12.05;100.00;95860.47;4996742;28;19922;-78
2022/09/25 02:33:54;;;;;;;42.53;27.60;;;;;;;11.94;100.00;95848.41;4997024;28;20137;-77
2022/09/25 02:36:22;;;;;;;44.58;26.50;;;;;;;11.89;100.00;95862.28;4996548;28;20058;-77
2022/09/25 02:38:51;;;;;;;32.60;25.23;;;;;;;11.79;100.00;95851.75;4997005;28;20149;-77
2022/09/25 02:41:28;;;;;;;66.88;30.00;;;;;;;11.69;100.00;95853.81;4996641;28;20054;-78
2022/09/25 02:44:05;;;;;;;39.58;28.70;;;;;;;11.67;100.00;95855.25;4996506;28;20546;-78
2022/09/25 02:46:44;;;;;;;34.58;25.02;;;;;;;11.76;100.00;95858.69;4996383;28;20046;-78
2022/09/25 02:49:22;;;;;;;48.25;30.20;;;;;;;11.80;100.00;95853.34;4998115;28;20789;-78
2022/09/25 02:51:57;;;;;;;38.20;27.63;;;;;;;11.75;100.00;95851.66;4996511;28;20061;-77
2022/09/25 02:54:31;;;;;;;42.72;28.42;;;;;;;11.80;100.00;95856.06;4996340;28;20097;-78
2022/09/25 02:57:04;;;;;;;38.28;27.58;;;;;;;11.77;100.00;95861.06;4978732;28;20054;-78
2022/09/25 02:59:35;;;;;;;57.50;28.88;;;;;;;11.71;100.00;95856.19;4996539;28;20506;-77
2022/09/25 03:02:03;;;;;;;47.90;26.80;;;;;;;11.68;100.00;95863.09;4996885;28;20053;-78
2022/09/25 03:04:35;;;;;;;35.13;24.23;;;;;;;11.72;100.00;95855.84;4996621;28;20054;-79
2022/09/25 03:07:02;;;;;;;69.47;24.80;;;;;;;11.21;100.00;95844.28;4996848;28;20069;-79
2022/09/25 03:09:31;;;;;;;48.08;24.65;;;;;;;11.20;100.00;95852.81;4995681;28;20138;-78
2022/09/25 03:11:58;;;;;;;35.60;23.60;;;;;;;11.22;100.00;95845.91;4995869;28;20085;-78
2022/09/25 03:14:27;;;;;;;96.25;29.17;;;;;;;10.88;100.00;95835.28;4996827;28;20117;-78
2022/09/25 03:16:56;;;;;;;36.30;24.10;;;;;;;10.88;100.00;95830.63;4995873;28;20054;-77
2022/09/25 03:19:29;;;;;;;35.13;24.63;;;;;;;11.00;100.00;95820.94;4997479;28;20651;-77
2022/09/25 03:21:55;;;;;;;;;;;;;;;11.04;100.00;95828.09;4996432;28;20054;-78
2022/09/25 03:24:22;;;;;;;31.73;23.25;;;;;;;11.10;100.00;95821.31;4995488;28;20396;-77
2022/09/25 03:26:48;;;;;;;32.22;23.85;;;;;;;11.23;100.00;95824.91;4995565;28;20490;-77
2022/09/25 03:29:16;;;;;;;32.35;23.95;;;;;;;11.33;100.00;95818.22;4995278;28;20046;-77
2022/09/25 03:31:44;;;;;;;34.95;25.02;;;;;;;11.40;100.00;95823.94;4995547;28;20061;-78
2022/09/25 03:34:11;;;;;;;58.42;29.77;;;;;;;11.42;100.00;95824.38;4995824;28;20073;-77
2022/09/25 03:36:43;;;;;;;66.38;28.02;;;;;;;11.33;100.00;95824.50;4995671;28;20046;-78
2022/09/25 03:39:09;;;;;;;34.20;24.55;;;;;;;11.36;100.00;95814.84;4995583;28;20046;-78
2022/09/25 03:41:38;;;;;;;37.58;25.50;;;;;;;11.43;100.00;95820.53;4995681;28;20046;-77
2022/09/25 03:44:05;;;;;;;51.35;30.02;;;;;;;11.40;100.00;95816.56;4995906;28;20047;-78
2022/09/25 03:46:34;;;;;;;41.35;27.25;;;;;;;11.42;100.00;95811.56;4995872;28;20057;-78
2022/09/25 03:49:02;;;;;;;36.40;24.42;;;;;;;11.47;100.00;95810.53;4997576;28;20057;-78
2022/09/25 03:51:30;;;;;;;44.97;28.02;;;;;;;11.45;100.00;95799.97;4995431;28;20062;-78
2022/09/25 03:53:58;;;;;;;36.28;24.98;;;;;;;11.55;100.00;95804.22;4995565;28;20057;-77
2022/09/25 03:56:27;;;;;;;40.78;27.67;;;;;;;11.61;100.00;95808.31;4995539;28;20061;-77
2022/09/25 03:58:54;;;;;;;41.25;28.10;;;;;;;11.59;100.00;95807.88;4995510;28;20508;-78
2022/09/25 04:01:22;;;;;;;58.30;27.10;;;;;;;11.56;100.00;95803.06;4995736;28;20057;-77
2022/09/25 04:03:50;;;;;;;35.95;24.98;;;;;;;11.53;100.00;95801.00;4995960;28;20050;-78
2022/09/25 04:06:19;;;;;;;36.67;24.80;;;;;;;11.53;100.00;95800.22;4995563;28;20043;-78
2022/09/25 04:08:47;;;;;;;36.22;25.92;;;;;;;11.57;100.00;95807.41;4995624;28;20053;-77
2022/09/25 04:11:16;;;;;;;76.80;27.95;;;;;;;11.50;100.00;95809.88;4996408;28;20066;-78
2022/09/25 04:13:43;;;;;;;40.38;25.48;;;;;;;11.52;100.00;95813.06;4995789;28;20050;-78
2022/09/25 04:16:11;;;;;;;34.78;24.60;;;;;;;11.53;100.00;95811.91;4995725;28;20102;-78
2022/09/25 04:18:39;;;;;;;39.15;26.92;;;;;;;11.57;100.00;95810.13;4996478;28;20046;-79
2022/09/25 04:21:07;;;;;;;42.72;27.50;;;;;;;11.50;100.00;95807.16;4997536;28;20054;-78
2022/09/25 04:23:34;;;;;;;35.65;25.05;;;;;;;11.50;100.00;95807.16;4997599;28;20050;-78
2022/09/25 04:26:00;;;;;;;38.97;25.75;;;;;;;11.51;100.00;95800.56;4997751;28;20082;-78
2022/09/25 04:28:31;;;;;;;41.08;25.42;;;;;;;11.44;100.00;95792.16;4996834;28;20054;-78
2022/09/25 04:30:58;;;;;;;49.03;25.73;;;;;;;11.40;100.00;95802.13;4997951;28;20046;-78
2022/09/25 04:36:09;;;;;;;38.55;25.63;;;;;;;11.25;100.00;95792.66;5004818;28;20066;-79
2022/09/25 04:38:35;;;;;;;79.50;28.60;;;;;;;11.23;100.00;95797.66;4998336;28;20054;-78
2022/09/25 04:41:02;;;;;;;41.13;26.05;;;;;;;11.30;100.00;95802.56;4998218;28;20517;-79
2022/09/25 04:43:31;;;;;;;39.50;25.08;;;;;;;11.29;100.00;95804.47;4998558;28;20050;-80
2022/09/25 04:46:01;;;;;;;39.03;25.77;;;;;;;11.34;100.00;95800.75;4997742;28;20056;-80
2022/09/25 04:48:27;;;;;;;35.00;23.35;;;;;;;11.42;100.00;95794.41;4997500;28;20046;-80
2022/09/25 04:50:54;;;;;;;35.47;23.20;;;;;;;11.48;100.00;95796.59;4998608;28;20058;-79
2022/09/25 04:53:21;;;;;;;43.05;25.92;;;;;;;11.51;100.00;95800.56;4996839;28;20050;-78
2022/09/25 04:55:48;;;;;;;38.55;24.00;;;;;;;11.52;100.00;95804.09;4997536;28;20132;-80
2022/09/25 04:58:14;;;;;;;46.13;27.17;;;;;;;11.49;100.00;95806.38;4997254;28;20054;-80
2022/09/25 05:00:42;;;;;;;53.38;28.30;;;;;;;11.40;100.00;95804.84;4997655;28;20053;-80
2022/09/25 05:03:09;;;;;;;42.35;27.35;;;;;;;11.37;100.00;95802.78;4995277;28;20100;-79
2022/09/25 05:05:38;;;;;;;42.15;26.90;;;;;;;11.36;100.00;95809.38;4995972;28;20050;-78
2022/09/25 05:08:05;;;;;;;42.00;25.67;;;;;;;11.40;100.00;95813.03;4993039;28;20054;-79
2022/09/25 05:10:33;;;;;;;40.72;27.33;;;;;;;11.34;100.00;95815.19;4993238;28;20438;-79
2022/09/25 05:13:01;;;;;;;41.35;26.70;;;;;;;11.38;100.00;95812.56;4992747;28;20414;-79
2022/09/25 05:15:29;;;;;;;37.25;24.77;;;;;;;11.42;100.00;95813.47;4993671;28;20046;-79
2022/09/25 05:18:04;;;;;;;38.38;25.35;;;;;;;11.45;100.00;95810.09;4996788;28;20074;-79
2022/09/25 05:20:31;;;;;;;40.78;26.05;;;;;;;11.48;100.00;95809.41;5005128;28;20046;-78
2022/09/25 05:22:58;;;;;;;37.70;24.85;;;;;;;11.52;100.00;95813.06;5006992;28;20046;-78
2022/09/25 05:25:26;;;;;;;41.38;27.15;;;;;;;11.46;100.00;95817.13;5007855;28;20046;-79
2022/09/25 05:27:54;;;;;;;43.85;28.00;;;;;;;11.35;100.00;95818.69;5006918;28;20054;-79
2022/09/25 05:30:21;;;;;;;41.53;26.75;;;;;;;11.35;100.00;95821.41;5003200;28;20055;-79
2022/09/25 05:32:49;;;;;;;40.78;25.70;;;;;;;11.43;100.00;95823.25;4999851;28;20047;-78
2022/09/25 05:35:18;;;;;;;44.35;27.60;;;;;;;11.43;100.00;95815.91;4997859;28;20050;-79
2022/09/25 05:37:44;;;;;;;42.15;26.58;;;;;;;11.38;100.00;95823.47;4997963;28;20482;-78
2022/09/25 05:40:11;;;;;;;36.05;24.42;;;;;;;11.43;100.00;95831.44;5000645;28;20076;-81
2022/09/25 05:42:38;;;;;;;35.70;24.92;;;;;;;11.30;100.00;95835.25;4990615;28;20045;-79
2022/09/25 05:45:05;;;;;;;33.08;23.33;;;;;;;11.35;100.00;95829.59;5016144;28;20552;-78
2022/09/25 05:47:32;;;;;;;43.45;24.15;;;;;;;11.32;100.00;95838.44;5016620;28;20045;-80
2022/09/25 05:49:58;;;;;;;32.53;22.00;;;;;;;11.31;100.00;95836.84;5008125;28;20047;-79
2022/09/25 05:52:27;;;;;;;32.33;21.75;;;;;;;11.37;100.00;95835.50;4999003;28;20055;-80
2022/09/25 05:54:53;;;;;;;33.42;22.42;;;;;;;11.38;100.00;95837.09;4980739;28;20054;-80
2022/09/25 05:57:21;;;;;;;47.85;24.27;;;;;;;11.34;100.00;95825.28;4998530;28;20085;-80
2022/09/25 05:59:48;;;;;;;35.88;23.95;;;;;;;11.28;100.00;95826.63;4997783;28;20086;-79
2022/09/25 06:02:15;;;;;;;36.20;23.52;;;;;;;11.33;100.00;95824.50;4998085;28;20054;-79
2022/09/25 06:04:42;;;;;;;39.63;24.88;;;;;;;11.37;100.00;95825.38;5000986;28;20051;-80
2022/09/25 06:07:09;;;;;;;32.00;22.52;;;;;;;11.44;100.00;95824.88;5008818;28;20038;-80
2022/09/25 06:09:37;;;;;;;43.33;26.25;;;;;;;11.40;100.00;95829.38;5009766;28;20054;-79
2022/09/25 06:12:04;;;;;;;42.47;24.05;;;;;;;11.31;100.00;95821.28;4973582;28;20101;-80
2022/09/25 06:14:31;;;;;;;36.55;23.77;;;;;;;11.30;100.00;95827.09;5002523;28;20088;-79
2022/09/25 06:16:58;;;;;;;34.33;24.10;;;;;;;11.27;100.00;95833.19;5000981;28;20054;-79
2022/09/25 06:19:25;;;;;;;34.22;23.95;;;;;;;11.21;100.00;95836.13;5002699;28;20116;-79
2022/09/25 06:21:51;;;;;;;31.02;22.13;;;;;;;11.33;100.00;95829.94;5003179;28;20043;-80
2022/09/25 06:24:23;;;;;;;41.20;24.52;;;;;;;11.38;100.00;95831.63;4984902;28;20121;-81
2022/09/25 06:26:51;;;;;;;36.63;24.35;;;;;;;11.35;100.00;95826.88;5001941;28;20054;-79
2022/09/25 06:29:18;;;;;;;35.17;23.58;;;;;;;11.37;100.00;95824.59;5003969;28;20060;-77
2022/09/25 06:31:45;;;;;;;37.28;23.65;;;;;;;11.39;100.00;95822.34;4983973;28;20042;-80
2022/09/25 06:34:11;;;;;;;33.95;23.02;;;;;;;11.40;100.00;95823.94;4999005;28;20129;-80
2022/09/25 06:36:38;;;;;;;29.83;21.02;;;;;;;11.44;100.00;95820.22;4999140;28;20054;-80
2022/09/25 06:39:06;;;;;;;34.45;23.73;;;;;;;11.47;100.00;95818.72;5007422;28;20057;-81
2022/09/25 06:41:55;;;;;;;37.13;24.25;;;;;;;11.32;100.00;95820.16;4995290;28;20050;-82
2022/09/25 06:44:27;;;;;;;38.65;23.58;;;;;;;11.36;100.00;95823.00;5031805;22;20049;-80
2022/09/25 06:46:54;;;;;;;41.42;24.98;;;;;;;11.38;100.00;95816.09;5014335;28;20048;-81
2022/09/25 06:49:21;;;;;;;33.72;21.58;;;;;;;11.48;100.00;95806.69;5028097;28;20088;-79
2022/09/25 06:51:49;;;;;;;34.45;21.88;;;;;;;11.55;100.00;95809.66;5030146;28;20048;-80
2022/09/25 06:56:54;;;;;;;35.45;22.05;;;;;;;11.62;100.00;95809.91;5021720;22;20045;-78
2022/09/25 06:59:21;;;;;;;37.80;23.50;;;;;;;11.66;100.00;95816.28;5012735;28;20046;-78
2022/09/25 07:01:47;;;;;;;31.92;20.13;;;;;;;11.70;100.00;95817.22;5014017;28;20049;-80
2022/09/25 07:04:13;;;;;;;37.58;21.42;;;;;;;11.72;100.00;95820.38;5013310;28;20053;-79
2022/09/25 07:06:39;;;;;;;36.70;22.13;;;;;;;11.73;100.00;95813.78;5012926;28;20082;-79
2022/09/25 07:09:06;;;;;;;34.45;21.77;;;;;;;11.44;100.00;95813.97;5013246;28;20498;-79
2022/09/25 07:11:32;;;;;;;33.97;19.98;;;;;;;11.48;100.00;95820.31;5011958;28;20064;-77
2022/09/25 07:14:01;;;;;;;28.90;18.17;;;;;;;11.61;100.00;95819.22;5019976;28;20412;-80
2022/09/25 07:16:31;;;;;;;30.02;20.13;;;;;;;11.70;100.00;95827.31;5030311;28;20080;-80
2022/09/25 07:18:59;;;;;;;30.17;19.80;;;;;;;11.76;100.00;95823.25;5030828;28;20042;-80
2022/09/25 07:21:29;;;;;;;32.63;20.65;;;;;;;11.85;100.00;95820.41;5023029;28;20046;-80
2022/09/25 07:23:57;;;;;;;28.98;19.20;;;;;;;11.86;100.00;95822.03;4998499;28;20054;-80
2022/09/25 07:26:25;;;;;;;28.05;19.42;;;;;;;11.79;100.00;95819.03;5002471;28;20137;-80
2022/09/25 07:28:54;;;;;;;23.35;17.77;;;;;;;11.81;100.00;95828.47;4996232;28;20052;-77
2022/09/25 07:31:24;;;;;;;26.67;19.17;;;;;;;11.89;100.00;95824.88;5003607;28;20049;-79
2022/09/25 07:33:51;;;;;;;26.73;19.58;;;;;;;11.92;100.00;95828.88;5013062;28;20053;-78
2022/09/25 07:36:18;;;;;;;26.02;19.00;;;;;;;11.85;100.00;95831.34;5022255;28;20057;-81
2022/09/25 07:38:49;;;;;;;25.23;18.55;;;;;;;11.79;100.00;95829.94;5019901;28;20056;-80
2022/09/25 07:41:16;;;;;;;23.35;16.83;;;;;;;11.80;100.00;95815.97;5023794;28;20097;-82
2022/09/25 07:43:43;;;;;;;24.20;17.42;;;;;;;11.89;100.00;95813.16;5043268;23;20061;-77
2022/09/25 07:46:10;;;;;;;24.48;17.67;;;;;;;11.93;100.00;95814.09;5012429;28;20053;-78
2022/09/25 07:48:39;;;;;;;23.20;18.02;;;;;;;12.05;100.00;95819.53;5012196;28;20056;-77
2022/09/25 07:51:08;;;;;;;26.05;17.95;;;;;;;12.08;100.00;95823.53;5013010;28;20057;-77
2022/09/25 07:53:36;;;;;;;25.50;18.30;;;;;;;12.18;100.00;95826.59;5011820;28;20076;-77
2022/09/25 07:56:03;;;;;;;28.17;19.88;;;;;;;11.92;100.00;95823.41;5013066;28;20054;-79
2022/09/25 07:58:30;;;;;;;27.65;19.73;;;;;;;12.00;100.00;95819.75;5013129;28;20038;-77
2022/09/25 08:03:41;;;;;;;;;;;;;;;12.26;100.00;95820.22;5091259;23;20054;-78
2022/09/25 08:06:10;;;;;;;30.45;20.25;;;;;;;12.19;100.00;95816.47;5010942;28;19929;-78
2022/09/25 08:08:38;;;;;;;27.17;19.15;;;;;;;12.32;100.00;95825.44;5011468;28;20127;-78
2022/09/25 08:11:06;;;;;;;22.98;16.95;;;;;;;12.36;100.00;95820.91;5011482;28;20053;-78
2022/09/25 08:13:33;;;;;;;24.80;18.20;;;;;;;12.38;99.30;95818.66;5011345;28;20141;-78
2022/09/25 08:16:01;;;;;;;23.92;17.73;;;;;;;12.41;98.98;95824.19;5011244;28;20557;-78
2022/09/25 08:18:28;;;;;;;26.45;19.70;;;;;;;12.41;99.07;95824.19;5010861;28;20069;-77
2022/09/25 08:21:00;;;;;;;29.13;20.10;;;;;;;12.47;99.88;95822.03;5012422;28;20053;-78
2022/09/25 08:23:27;;;;;;;26.13;19.23;;;;;;;12.53;100.00;95826.16;5012622;28;20624;-78
2022/09/25 08:25:53;;;;;;;27.85;19.98;;;;;;;12.51;100.00;95823.75;5012592;28;20088;-78
2022/09/25 08:28:21;;;;;;;28.40;20.33;;;;;;;12.49;100.00;95817.84;5010415;28;20050;-77
2022/09/25 08:30:47;;;;;;;25.85;19.27;;;;;;;12.64;99.80;95819.06;5010945;28;20054;-77
2022/09/25 08:33:14;;;;;;;25.13;18.23;;;;;;;12.69;99.67;95818.03;5010843;28;20058;-77
2022/09/25 08:35:41;;;;;;;27.60;20.05;;;;;;;12.74;99.35;95815.88;5011687;28;20046;-78
2022/09/25 08:38:11;;;;;;;31.27;22.35;;;;;;;12.65;99.40;95815.19;5010856;28;20141;-76
2022/09/25 08:40:41;;;;;;;35.10;24.08;;;;;;;12.64;99.92;95816.34;4992085;28;20112;-78
2022/09/25 08:43:14;;;;;;;30.05;21.95;;;;;;;12.80;100.00;95813.69;4992539;28;20056;-78
2022/09/25 08:51:17;;;;;;;34.22;24.00;;;;;;;12.80;100.00;95824.63;4992238;28;20060;-77
2022/09/25 08:53:45;;;;;;;29.40;20.83;;;;;;;12.86;100.00;95823.25;4992703;28;20405;-77
2022/09/25 08:56:17;;;;;;;31.35;22.90;;;;;;;12.82;100.00;95816.06;4992016;28;20069;-77
2022/09/25 08:58:51;;;;;;;28.65;21.42;;;;;;;12.78;100.00;95822.22;4993437;28;20510;-78
2022/09/25 09:01:21;;;;;;;35.75;23.42;;;;;;;12.70;100.00;95820.44;4992789;28;20480;-77
2022/09/25 09:03:54;;;;;;;34.50;23.85;;;;;;;12.77;100.00;95820.63;5012381;28;20065;-78
2022/09/25 09:06:24;;;;;;;34.15;22.85;;;;;;;12.80;100.00;95825.41;4995232;28;20430;-78
2022/09/25 09:08:58;;;;;;;36.22;25.15;;;;;;;12.78;100.00;95819.47;4994517;28;20777;-77
2022/09/25 09:11:32;;;;;;;33.63;21.40;;;;;;;12.71;100.00;95816.56;4995670;28;20046;-77
2022/09/25 09:14:02;;;;;;;29.70;20.85;;;;;;;12.83;100.00;95828.59;4996605;28;20057;-77
2022/09/25 09:16:37;;;;;;;24.08;16.80;;;;;;;12.95;100.00;95826.63;4995808;28;20038;-78
2022/09/25 09:19:07;;;;;;;28.13;20.52;;;;;;;12.97;97.53;95826.28;4999049;28;20056;-79
2022/09/25 09:21:35;;;;;;;28.67;20.52;;;;;;;12.96;96.05;95816.50;4995501;28;20047;-76
2022/09/25 09:24:14;;;;;;;28.13;18.73;;;;;;;13.03;96.46;95814.75;4999638;28;20054;-78
2022/09/25 09:26:58;;;;;;;27.05;19.55;;;;;;;13.05;96.68;95811.69;5001853;28;20047;-79
2022/09/25 09:29:53;;;;;;;25.58;18.67;;;;;;;13.13;97.00;95812.69;5004501;28;20117;-78
2022/09/25 09:32:33;;;;;;;27.75;19.75;;;;;;;13.03;97.25;95811.22;5006157;28;20060;-79
2022/09/25 09:35:10;;;;;;;26.05;18.38;;;;;;;12.95;97.56;95812.19;4984747;28;20051;-79
2022/09/25 09:37:52;;;;;;;25.13;18.02;;;;;;;13.08;97.38;95810.97;5002925;28;20112;-78
2022/09/25 09:40:32;;;;;;;24.30;17.23;;;;;;;13.14;97.51;95814.25;4982118;28;20097;-78
2022/09/25 09:43:07;;;;;;;25.35;17.85;;;;;;;13.15;96.67;95813.13;4975855;28;20130;-78
2022/09/25 09:45:44;;;;;;;19.67;14.98;;;;;;;13.06;94.50;95810.56;4982690;28;20073;-76
2022/09/25 09:48:17;;;;;;;19.00;14.20;;;;;;;13.27;94.50;95799.44;4972677;28;20121;-77
2022/09/25 09:50:49;;;;;;;23.58;16.98;;;;;;;13.39;95.42;95807.59;4991621;28;20486;-76
2022/09/25 09:53:27;;;;;;;21.95;15.80;;;;;;;13.41;93.84;95809.97;4993871;28;20061;-78
2022/09/25 09:56:00;;;;;;;21.48;15.38;;;;;;;13.44;93.36;95807.34;4993432;28;20129;-78
2022/09/25 09:58:33;;;;;;;19.92;14.90;;;;;;;13.47;93.61;95814.06;4993903;28;20117;-78
2022/09/25 10:01:00;;;;;;;25.85;19.35;;;;;;;13.43;93.01;95807.69;4994147;28;20058;-79
2022/09/25 10:03:30;;;;;;;25.65;18.35;;;;;;;13.48;92.36;95796.50;4993346;28;20058;-77
2022/09/25 10:06:00;;;;;;;25.77;19.35;;;;;;;13.43;91.91;95802.22;4996527;28;20581;-78
2022/09/25 10:08:26;;;;;;;25.38;18.30;;;;;;;13.47;92.19;95800.38;5017501;28;20524;-77
2022/09/25 10:10:56;;;;;;;22.38;16.20;;;;;;;13.57;92.81;95794.38;5008673;28;20054;-78
2022/09/25 10:13:28;;;;;;;25.17;19.40;;;;;;;13.60;94.03;95790.94;4998086;28;20585;-77
2022/09/25 10:15:59;;;;;;;24.60;17.70;;;;;;;13.72;94.30;95799.06;4980871;28;20046;-78
2022/09/25 10:18:30;;;;;;;23.83;18.77;;;;;;;13.73;94.23;95786.19;4997481;28;20089;-77
2022/09/25 10:21:02;;;;;;;23.70;18.35;;;;;;;13.88;92.90;95790.09;5002153;28;20046;-78
2022/09/25 10:23:35;;;;;;;21.98;17.25;;;;;;;13.98;92.24;95787.63;4999656;28;20046;-78
2022/09/25 10:26:03;;;;;;;;;;;;;;;13.95;90.56;95787.56;4999928;28;20050;-78
2022/09/25 10:28:34;;;;;;;20.38;16.17;;;;;;;14.00;89.13;95784.53;4997739;28;20036;-78
2022/09/25 10:31:03;;;;;;;24.40;18.38;;;;;;;13.73;89.90;95789.75;4998111;28;20061;-78
2022/09/25 10:33:31;;;;;;;22.33;17.05;;;;;;;13.94;89.94;95788.66;4997946;28;20054;-77
2022/09/25 10:36:00;;;;;;;22.00;17.45;;;;;;;14.14;91.02;95789.56;4998313;28;20125;-79
2022/09/25 10:38:33;;;;;;;19.50;15.65;;;;;;;14.30;89.93;95798.53;4998264;28;20058;-78
2022/09/25 10:41:06;;;;;;;17.60;14.45;;;;;;;14.22;85.23;95792.13;4995960;28;20502;-78
2022/09/25 10:43:33;;;;;;;17.88;13.23;;;;;;;14.24;84.94;95798.03;4997410;28;20054;-78
2022/09/25 10:46:12;;;;;;;16.80;13.38;;;;;;;14.20;83.74;95797.16;4997600;28;20042;-79
2022/09/25 10:51:24;;;;;;;19.48;14.52;;;;;;;14.26;84.89;95798.47;5016098;28;20133;-78
2022/09/25 10:53:52;;;;;;;17.88;13.80;;;;;;;14.48;85.36;95790.78;5019142;28;20052;-79
2022/09/25 10:56:26;;;;;;;17.92;13.18;;;;;;;14.43;83.91;95793.78;5023545;28;20072;-80
2022/09/25 10:58:56;;;;;;;17.98;14.20;;;;;;;14.54;82.37;95784.66;5001976;28;20058;-79
2022/09/25 11:01:33;;;;;;;18.05;14.02;;;;;;;14.63;85.54;95781.75;5020293;28;20053;-79
2022/09/25 11:04:03;;;;;;;16.92;12.48;;;;;;;14.74;84.67;95777.28;5004234;28;20054;-79
2022/09/25 11:06:32;;;;;;;19.48;14.50;;;;;;;14.84;85.22;95781.41;5024646;28;20046;-78
2022/09/25 11:09:07;;;;;;;15.35;12.68;;;;;;;15.00;84.79;95779.41;5022416;28;20136;-78
2022/09/25 11:11:38;;;;;;;22.25;17.45;;;;;;;14.77;85.03;95779.31;5018844;28;20056;-79
2022/09/25 11:14:07;;;;;;;20.92;16.52;;;;;;;14.88;86.22;95782.28;5017291;28;20073;-78
2022/09/25 11:16:48;;;;;;;20.90;16.17;;;;;;;14.86;84.88;95784.56;5015467;28;20046;-77
2022/09/25 11:19:19;;;;;;;20.17;16.20;;;;;;;14.90;84.66;95784.66;5013252;28;20046;-78
2022/09/25 11:21:56;;;;;;;18.38;14.68;;;;;;;14.94;84.03;95785.53;5016227;28;20042;-79
2022/09/25 11:24:28;;;;;;;21.65;16.13;;;;;;;14.84;84.02;95786.91;5018644;28;20140;-80
2022/09/25 11:27:02;;;;;;;18.65;15.02;;;;;;;14.90;84.24;95784.66;5025662;28;20118;-80
2022/09/25 11:29:40;;;;;;;21.73;16.23;;;;;;;14.68;83.98;95773.25;5024017;28;20132;-80
2022/09/25 11:32:16;;;;;;;21.95;15.98;;;;;;;14.66;86.02;95772.00;5023564;28;20052;-81
2022/09/25 11:34:59;;;;;;;20.80;15.30;;;;;;;14.74;86.03;95763.59;5016747;28;20052;-78
2022/09/25 11:37:31;;;;;;;19.20;15.10;;;;;;;14.87;86.12;95762.28;5016262;28;20069;-78
2022/09/25 11:43:06;;;;;;;20.08;15.82;;;;;;;14.88;81.76;95749.41;4953087;29;20107;-79
2022/09/25 11:45:39;;;;;;;15.00;11.05;;;;;;;15.06;82.56;95755.22;4985427;28;20057;-80
2022/09/25 11:48:13;;;;;;;18.20;14.25;;;;;;;15.19;83.49;95751.19;4996612;28;20050;-78
2022/09/25 11:50:51;;;;;;;18.23;14.20;;;;;;;15.33;84.84;95742.44;4999280;28;20704;-78